createdAt,value
2024-03-12T00:00:55.000Z,7.94
2024-03-12T00:01:55.000Z,7.88
2024-03-12T00:02:54.000Z,7.88
2024-03-12T00:03:54.000Z,7.88
2024-03-12T00:04:54.000Z,7.88
2024-03-12T00:05:55.000Z,7.88
2024-03-12T00:06:54.000Z,7.88
2024-03-12T00:07:54.000Z,7.88
2024-03-12T00:08:54.000Z,7.88
2024-03-12T00:09:53.000Z,7.81
2024-03-12T00:10:54.000Z,7.88
2024-03-12T00:11:54.000Z,7.88
2024-03-12T00:12:53.000Z,7.88
2024-03-12T00:13:53.000Z,7.88
2024-03-12T00:14:54.000Z,7.88
2024-03-12T00:15:54.000Z,7.88
2024-03-12T00:16:55.000Z,7.88
2024-03-12T00:17:53.000Z,7.88
2024-03-12T00:18:53.000Z,7.88
2024-03-12T00:19:55.000Z,7.88
2024-03-12T00:20:53.000Z,7.88
2024-03-12T00:21:54.000Z,7.88
2024-03-12T00:22:53.000Z,7.81
2024-03-12T00:23:53.000Z,7.81
2024-03-12T00:24:53.000Z,7.81
2024-03-12T00:25:55.000Z,7.81
2024-03-12T00:26:53.000Z,7.75
2024-03-12T00:27:56.000Z,7.75
2024-03-12T00:28:54.000Z,7.69
2024-03-12T00:29:54.000Z,7.69
2024-03-12T00:30:54.000Z,7.69
2024-03-12T00:31:54.000Z,7.69
2024-03-12T00:32:54.000Z,7.62
2024-03-12T00:33:54.000Z,7.62
2024-03-12T00:34:54.000Z,7.69
2024-03-12T00:35:54.000Z,7.62
2024-03-12T00:36:53.000Z,7.62
2024-03-12T00:37:56.000Z,7.62
2024-03-12T00:38:53.000Z,7.62
2024-03-12T00:39:54.000Z,7.62
2024-03-12T00:40:54.000Z,7.69
2024-03-12T00:41:56.000Z,7.62
2024-03-12T00:42:54.000Z,7.62
2024-03-12T00:43:54.000Z,7.62
2024-03-12T00:44:55.000Z,7.62
2024-03-12T00:45:54.000Z,7.62
2024-03-12T00:46:54.000Z,7.56
2024-03-12T00:47:54.000Z,7.56
2024-03-12T00:48:54.000Z,7.56
2024-03-12T00:49:54.000Z,7.56
2024-03-12T00:50:55.000Z,7.50
2024-03-12T00:51:54.000Z,7.50
2024-03-12T00:52:54.000Z,7.44
2024-03-12T00:53:54.000Z,7.50
2024-03-12T00:54:54.000Z,7.44
2024-03-12T00:55:54.000Z,7.44
2024-03-12T00:56:55.000Z,7.38
2024-03-12T00:57:55.000Z,7.44
2024-03-12T00:58:54.000Z,7.38
2024-03-12T00:59:54.000Z,7.38
2024-03-12T01:00:54.000Z,7.38
2024-03-12T01:01:54.000Z,7.38
2024-03-12T01:02:55.000Z,7.38
2024-03-12T01:03:54.000Z,7.38
2024-03-12T01:04:54.000Z,7.38
2024-03-12T01:05:54.000Z,7.31
2024-03-12T01:06:55.000Z,7.31
2024-03-12T01:07:55.000Z,7.25
2024-03-12T01:08:55.000Z,7.19
2024-03-12T01:09:55.000Z,7.12
2024-03-12T01:10:54.000Z,7.12
2024-03-12T01:11:54.000Z,7.06
2024-03-12T01:12:55.000Z,7.06
2024-03-12T01:13:54.000Z,7.06
2024-03-12T01:14:54.000Z,7.00
2024-03-12T01:15:54.000Z,7.06
2024-03-12T01:16:54.000Z,7.06
2024-03-12T01:17:55.000Z,7.06
2024-03-12T01:18:54.000Z,7.06
2024-03-12T01:19:54.000Z,7.06
2024-03-12T01:20:54.000Z,7.06
2024-03-12T01:21:54.000Z,7.06
2024-03-12T01:22:54.000Z,7.06
2024-03-12T01:23:54.000Z,7.00
2024-03-12T01:24:54.000Z,7.06
2024-03-12T01:25:54.000Z,7.06
2024-03-12T01:26:55.000Z,7.00
2024-03-12T01:27:55.000Z,7.06
2024-03-12T01:28:54.000Z,7.00
2024-03-12T01:29:55.000Z,7.00
2024-03-12T01:30:54.000Z,7.06
2024-03-12T01:31:55.000Z,7.06
2024-03-12T01:32:54.000Z,7.06
2024-03-12T01:33:54.000Z,7.06
2024-03-12T01:34:54.000Z,7.06
2024-03-12T01:36:05.000Z,7.06
2024-03-12T01:36:54.000Z,7.00
2024-03-12T01:37:57.000Z,7.00
2024-03-12T01:38:54.000Z,6.94
2024-03-12T01:39:54.000Z,7.00
2024-03-12T01:40:54.000Z,6.94
2024-03-12T01:41:57.000Z,6.94
2024-03-12T01:43:00.000Z,6.94
2024-03-12T01:43:55.000Z,6.88
2024-03-12T01:44:54.000Z,6.81
2024-03-12T01:45:54.000Z,6.81
2024-03-12T01:46:54.000Z,6.81
2024-03-12T01:47:55.000Z,6.81
2024-03-12T01:48:55.000Z,6.75
2024-03-12T01:49:54.000Z,6.75
2024-03-12T01:50:54.000Z,6.75
2024-03-12T01:51:54.000Z,6.75
2024-03-12T01:52:59.000Z,6.75
2024-03-12T01:53:56.000Z,6.69
2024-03-12T01:54:54.000Z,6.69
2024-03-12T01:55:54.000Z,6.69
2024-03-12T01:56:54.000Z,6.62
2024-03-12T01:57:54.000Z,6.62
2024-03-12T01:58:54.000Z,6.62
2024-03-12T01:59:54.000Z,6.56
2024-03-12T02:00:54.000Z,6.56
2024-03-12T02:01:57.000Z,6.56
2024-03-12T02:02:54.000Z,6.50
2024-03-12T02:03:54.000Z,6.50
2024-03-12T02:04:56.000Z,6.50
2024-03-12T02:05:54.000Z,6.50
2024-03-12T02:06:54.000Z,6.44
2024-03-12T02:07:54.000Z,6.44
2024-03-12T02:08:54.000Z,6.38
2024-03-12T02:09:54.000Z,6.38
2024-03-12T02:10:54.000Z,6.38
2024-03-12T02:11:54.000Z,6.31
2024-03-12T02:12:54.000Z,6.25
2024-03-12T02:13:54.000Z,6.25
2024-03-12T02:14:53.000Z,6.25
2024-03-12T02:15:53.000Z,6.19
2024-03-12T02:16:54.000Z,6.25
2024-03-12T02:17:54.000Z,6.25
2024-03-12T02:18:53.000Z,6.19
2024-03-12T02:19:54.000Z,6.25
2024-03-12T02:20:53.000Z,6.25
2024-03-12T02:21:53.000Z,6.25
2024-03-12T02:22:54.000Z,6.31
2024-03-12T02:23:53.000Z,6.31
2024-03-12T02:24:53.000Z,6.31
2024-03-12T02:25:53.000Z,6.31
2024-03-12T02:26:54.000Z,6.31
2024-03-12T02:27:55.000Z,6.31
2024-03-12T02:28:53.000Z,6.31
2024-03-12T02:29:54.000Z,6.38
2024-03-12T02:30:54.000Z,6.38
2024-03-12T02:31:53.000Z,6.44
2024-03-12T02:32:54.000Z,6.38
2024-03-12T02:33:54.000Z,6.38
2024-03-12T02:34:54.000Z,6.38
2024-03-12T02:35:54.000Z,6.38
2024-03-12T02:36:54.000Z,6.38
2024-03-12T02:37:53.000Z,6.38
2024-03-12T02:38:53.000Z,6.38
2024-03-12T02:39:54.000Z,6.38
2024-03-12T02:40:53.000Z,6.38
2024-03-12T02:41:54.000Z,6.38
2024-03-12T02:42:53.000Z,6.31
2024-03-12T02:43:54.000Z,6.31
2024-03-12T02:44:55.000Z,6.31
2024-03-12T02:45:53.000Z,6.31
2024-03-12T02:46:54.000Z,6.31
2024-03-12T02:47:54.000Z,6.38
2024-03-12T02:48:53.000Z,6.38
2024-03-12T02:49:54.000Z,6.38
2024-03-12T02:50:53.000Z,6.38
2024-03-12T02:51:54.000Z,6.44
2024-03-12T02:52:55.000Z,6.44
2024-03-12T02:53:54.000Z,6.44
2024-03-12T02:54:53.000Z,6.50
2024-03-12T02:55:53.000Z,6.50
2024-03-12T02:56:54.000Z,6.56
2024-03-12T02:57:54.000Z,6.56
2024-03-12T02:58:55.000Z,6.56
2024-03-12T02:59:53.000Z,6.56
2024-03-12T03:00:55.000Z,6.62
2024-03-12T03:01:56.000Z,6.62
2024-03-12T03:02:54.000Z,6.75
2024-03-12T03:03:54.000Z,6.75
2024-03-12T03:04:53.000Z,6.69
2024-03-12T03:05:54.000Z,6.75
2024-03-12T03:06:57.000Z,6.81
2024-03-12T03:07:54.000Z,6.81
2024-03-12T03:08:53.000Z,6.81
2024-03-12T03:09:53.000Z,6.81
2024-03-12T03:10:54.000Z,6.88
2024-03-12T03:11:55.000Z,6.94
2024-03-12T03:12:53.000Z,6.94
2024-03-12T03:13:54.000Z,6.94
2024-03-12T03:14:54.000Z,6.94
2024-03-12T03:15:54.000Z,7.00
2024-03-12T03:16:55.000Z,7.00
2024-03-12T03:17:54.000Z,7.06
2024-03-12T03:18:57.000Z,7.06
2024-03-12T03:19:54.000Z,7.06
2024-03-12T03:20:54.000Z,7.12
2024-03-12T03:21:54.000Z,7.12
2024-03-12T03:22:54.000Z,7.12
2024-03-12T03:23:54.000Z,7.12
2024-03-12T03:24:54.000Z,7.19
2024-03-12T03:25:54.000Z,7.12
2024-03-12T03:26:54.000Z,7.19
2024-03-12T03:27:54.000Z,7.19
2024-03-12T03:28:54.000Z,7.19
2024-03-12T03:29:56.000Z,7.25
2024-03-12T03:30:59.000Z,7.25
2024-03-12T03:31:55.000Z,7.25
2024-03-12T03:32:54.000Z,7.25
2024-03-12T03:33:55.000Z,7.31
2024-03-12T03:34:54.000Z,7.31
2024-03-12T03:35:54.000Z,7.31
2024-03-12T03:36:55.000Z,7.38
2024-03-12T03:37:54.000Z,7.38
2024-03-12T03:38:54.000Z,7.38
2024-03-12T03:39:54.000Z,7.38
2024-03-12T03:40:54.000Z,7.38
2024-03-12T03:41:55.000Z,7.38
2024-03-12T03:42:56.000Z,7.38
2024-03-12T03:43:54.000Z,7.38
2024-03-12T03:44:54.000Z,7.44
2024-03-12T03:45:53.000Z,7.44
2024-03-12T03:46:53.000Z,7.44
2024-03-12T03:47:53.000Z,7.44
2024-03-12T03:48:55.000Z,7.44
2024-03-12T03:49:54.000Z,7.50
2024-03-12T03:50:54.000Z,7.50
2024-03-12T03:51:53.000Z,7.50
2024-03-12T03:52:53.000Z,7.50
2024-03-12T03:53:54.000Z,7.50
2024-03-12T03:54:53.000Z,7.50
2024-03-12T03:55:54.000Z,7.50
2024-03-12T03:56:53.000Z,7.50
2024-03-12T03:57:53.000Z,7.56
2024-03-12T03:58:57.000Z,7.56
2024-03-12T03:59:55.000Z,7.56
2024-03-12T04:00:54.000Z,7.56
2024-03-12T04:01:54.000Z,7.56
2024-03-12T04:02:54.000Z,7.56
2024-03-12T04:03:56.000Z,7.56
2024-03-12T04:04:53.000Z,7.56
2024-03-12T04:05:56.000Z,7.62
2024-03-12T04:06:54.000Z,7.62
2024-03-12T04:07:54.000Z,7.62
2024-03-12T04:08:53.000Z,7.62
2024-03-12T04:09:54.000Z,7.62
2024-03-12T04:10:53.000Z,7.56
2024-03-12T04:11:53.000Z,7.62
2024-03-12T04:12:56.000Z,7.62
2024-03-12T04:13:54.000Z,7.62
2024-03-12T04:14:54.000Z,7.62
2024-03-12T04:15:55.000Z,7.62
2024-03-12T04:16:53.000Z,7.69
2024-03-12T04:17:54.000Z,7.69
2024-03-12T04:18:53.000Z,7.69
2024-03-12T04:19:54.000Z,7.69
2024-03-12T04:20:54.000Z,7.69
2024-03-12T04:21:53.000Z,7.69
2024-03-12T04:22:55.000Z,7.69
2024-03-12T04:23:54.000Z,7.69
2024-03-12T04:24:53.000Z,7.69
2024-03-12T04:25:53.000Z,7.69
2024-03-12T04:26:54.000Z,7.69
2024-03-12T04:27:55.000Z,7.69
2024-03-12T04:28:54.000Z,7.69
2024-03-12T04:29:53.000Z,7.69
2024-03-12T04:30:54.000Z,7.75
2024-03-12T04:31:54.000Z,7.75
2024-03-12T04:32:53.000Z,7.75
2024-03-12T04:33:53.000Z,7.75
2024-03-12T04:34:54.000Z,7.69
2024-03-12T04:35:54.000Z,7.75
2024-03-12T04:36:53.000Z,7.75
2024-03-12T04:37:54.000Z,7.75
2024-03-12T04:38:53.000Z,7.75
2024-03-12T04:39:53.000Z,7.75
2024-03-12T04:40:53.000Z,7.75
2024-03-12T04:41:53.000Z,7.81
2024-03-12T04:42:53.000Z,7.75
2024-03-12T04:43:53.000Z,7.81
2024-03-12T04:44:53.000Z,7.75
2024-03-12T04:45:53.000Z,7.81
2024-03-12T04:46:54.000Z,7.75
2024-03-12T04:47:54.000Z,7.81
2024-03-12T04:48:54.000Z,7.75
2024-03-12T04:49:54.000Z,7.81
2024-03-12T04:50:54.000Z,7.81
2024-03-12T04:51:55.000Z,7.81
2024-03-12T04:52:54.000Z,7.81
2024-03-12T04:53:54.000Z,7.75
2024-03-12T04:54:54.000Z,7.81
2024-03-12T04:55:54.000Z,7.81
2024-03-12T04:56:54.000Z,7.81
2024-03-12T04:57:54.000Z,7.81
2024-03-12T04:58:54.000Z,7.81
2024-03-12T04:59:54.000Z,7.81
2024-03-12T05:00:54.000Z,7.88
2024-03-12T05:01:54.000Z,7.81
2024-03-12T05:02:54.000Z,7.81
2024-03-12T05:03:54.000Z,7.88
2024-03-12T05:04:54.000Z,7.81
2024-03-12T05:05:54.000Z,7.88
2024-03-12T05:06:54.000Z,7.81
2024-03-12T05:07:54.000Z,7.88
2024-03-12T05:08:55.000Z,7.81
2024-03-12T05:09:53.000Z,7.88
2024-03-12T05:10:54.000Z,7.88
2024-03-12T05:11:54.000Z,7.88
2024-03-12T05:12:54.000Z,7.88
2024-03-12T05:13:54.000Z,7.88
2024-03-12T05:14:54.000Z,7.88
2024-03-12T05:15:54.000Z,7.88
2024-03-12T05:16:54.000Z,7.88
2024-03-12T05:17:54.000Z,7.88
2024-03-12T05:18:54.000Z,7.88
2024-03-12T05:19:54.000Z,7.88
2024-03-12T05:20:54.000Z,7.94
2024-03-12T05:21:54.000Z,7.94
2024-03-12T05:22:57.000Z,7.94
2024-03-12T05:23:54.000Z,7.94
2024-03-12T05:24:53.000Z,7.94
2024-03-12T05:25:54.000Z,7.94
2024-03-12T05:26:54.000Z,8.00
2024-03-12T05:27:54.000Z,7.94
2024-03-12T05:28:55.000Z,7.94
2024-03-12T05:29:54.000Z,8.00
2024-03-12T05:30:54.000Z,8.00
2024-03-12T05:31:53.000Z,8.00
2024-03-12T05:32:55.000Z,8.00
2024-03-12T05:33:54.000Z,8.00
2024-03-12T05:34:58.000Z,8.00
2024-03-12T05:35:55.000Z,8.00
2024-03-12T05:37:03.000Z,8.00
2024-03-12T05:37:58.000Z,8.00
2024-03-12T05:38:58.000Z,8.00
2024-03-12T05:39:58.000Z,8.06
2024-03-12T05:41:00.000Z,8.00
2024-03-12T05:41:58.000Z,8.06
2024-03-12T05:42:58.000Z,8.00
2024-03-12T05:43:58.000Z,8.06
2024-03-12T05:44:58.000Z,8.06
2024-03-12T05:45:59.000Z,8.00
2024-03-12T05:46:58.000Z,8.06
2024-03-12T05:47:58.000Z,8.06
2024-03-12T05:48:53.000Z,8.06
2024-03-12T05:49:54.000Z,8.06
2024-03-12T05:50:55.000Z,8.06
2024-03-12T05:51:55.000Z,8.06
2024-03-12T05:52:54.000Z,8.06
2024-03-12T05:53:53.000Z,8.06
2024-03-12T05:54:54.000Z,8.06
2024-03-12T05:55:53.000Z,8.06
2024-03-12T05:56:53.000Z,8.06
2024-03-12T05:57:54.000Z,8.12
2024-03-12T05:58:54.000Z,8.06
2024-03-12T05:59:53.000Z,8.06
2024-03-12T06:00:53.000Z,8.06
2024-03-12T06:01:54.000Z,8.06
2024-03-12T06:02:53.000Z,8.12
2024-03-12T06:03:53.000Z,8.06
2024-03-12T06:04:54.000Z,8.12
2024-03-12T06:05:54.000Z,8.06
2024-03-12T06:06:53.000Z,8.06
2024-03-12T06:07:53.000Z,8.06
2024-03-12T06:08:54.000Z,8.06
2024-03-12T06:09:53.000Z,8.12
2024-03-12T06:10:53.000Z,8.12
2024-03-12T06:11:55.000Z,8.12
2024-03-12T06:12:53.000Z,8.12
2024-03-12T06:13:54.000Z,8.06
2024-03-12T06:14:53.000Z,8.12
2024-03-12T06:15:53.000Z,8.12
2024-03-12T06:16:54.000Z,8.06
2024-03-12T06:17:53.000Z,8.12
2024-03-12T06:18:54.000Z,8.12
2024-03-12T06:19:53.000Z,8.06
2024-03-12T06:20:53.000Z,8.12
2024-03-12T06:21:53.000Z,8.12
2024-03-12T06:22:54.000Z,8.06
2024-03-12T06:23:53.000Z,8.12
2024-03-12T06:24:54.000Z,8.12
2024-03-12T06:25:53.000Z,8.12
2024-03-12T06:26:54.000Z,8.12
2024-03-12T06:27:53.000Z,8.06
2024-03-12T06:28:53.000Z,8.12
2024-03-12T06:29:54.000Z,8.12
2024-03-12T06:30:54.000Z,8.12
2024-03-12T06:31:54.000Z,8.12
2024-03-12T06:32:53.000Z,8.12
2024-03-12T06:33:54.000Z,8.12
2024-03-12T06:34:53.000Z,8.12
2024-03-12T06:35:53.000Z,8.12
2024-03-12T06:36:57.000Z,8.12
2024-03-12T06:37:54.000Z,8.06
2024-03-12T06:38:53.000Z,8.12
2024-03-12T06:39:54.000Z,8.12
2024-03-12T06:40:53.000Z,8.12
2024-03-12T06:41:53.000Z,8.12
2024-03-12T06:42:55.000Z,8.12
2024-03-12T06:43:53.000Z,8.12
2024-03-12T06:44:55.000Z,8.12
2024-03-12T06:45:53.000Z,8.12
2024-03-12T06:46:54.000Z,8.12
2024-03-12T06:47:55.000Z,8.12
2024-03-12T06:48:53.000Z,8.12
2024-03-12T06:49:53.000Z,8.12
2024-03-12T06:50:53.000Z,8.12
2024-03-12T06:51:53.000Z,8.12
2024-03-12T06:52:54.000Z,8.12
2024-03-12T06:53:53.000Z,8.12
2024-03-12T06:54:53.000Z,8.19
2024-03-12T06:55:53.000Z,8.12
2024-03-12T06:56:53.000Z,8.19
2024-03-12T06:57:58.000Z,8.12
2024-03-12T06:58:53.000Z,8.12
2024-03-12T06:59:55.000Z,8.19
2024-03-12T07:00:54.000Z,8.12
2024-03-12T07:01:54.000Z,8.19
2024-03-12T07:02:53.000Z,8.19
2024-03-12T07:03:56.000Z,8.12
2024-03-12T07:04:54.000Z,8.19
2024-03-12T07:05:55.000Z,8.19
2024-03-12T07:06:54.000Z,8.19
2024-03-12T07:07:53.000Z,8.19
2024-03-12T07:09:00.000Z,8.25
2024-03-12T07:09:54.000Z,8.19
2024-03-12T07:10:54.000Z,8.25
2024-03-12T07:11:58.000Z,8.25
2024-03-12T07:12:55.000Z,8.19
2024-03-12T07:14:01.000Z,8.25
2024-03-12T07:14:56.000Z,8.25
2024-03-12T07:15:53.000Z,8.25
2024-03-12T07:16:54.000Z,8.25
2024-03-12T07:17:53.000Z,8.25
2024-03-12T07:18:54.000Z,8.25
2024-03-12T07:19:53.000Z,8.25
2024-03-12T07:20:54.000Z,8.25
2024-03-12T07:21:54.000Z,8.25
2024-03-12T07:22:53.000Z,8.25
2024-03-12T07:23:53.000Z,8.25
2024-03-12T07:24:54.000Z,8.25
2024-03-12T07:25:55.000Z,8.25
2024-03-12T07:26:53.000Z,8.25
2024-03-12T07:27:56.000Z,8.25
2024-03-12T07:28:53.000Z,8.25
2024-03-12T07:29:53.000Z,8.25
2024-03-12T07:30:53.000Z,8.25
2024-03-12T07:31:53.000Z,8.25
2024-03-12T07:32:53.000Z,8.31
2024-03-12T07:33:54.000Z,8.31
2024-03-12T07:34:53.000Z,8.31
2024-03-12T07:35:53.000Z,8.31
2024-03-12T07:36:53.000Z,8.31
2024-03-12T07:37:53.000Z,8.31
2024-03-12T07:38:53.000Z,8.31
2024-03-12T07:39:53.000Z,8.31
2024-03-12T07:40:53.000Z,8.31
2024-03-12T07:41:54.000Z,8.31
2024-03-12T07:42:53.000Z,8.25
2024-03-12T07:43:53.000Z,8.31
2024-03-12T07:44:53.000Z,8.31
2024-03-12T07:45:53.000Z,8.31
2024-03-12T07:46:54.000Z,8.31
2024-03-12T07:47:53.000Z,8.31
2024-03-12T07:48:54.000Z,8.31
2024-03-12T07:49:54.000Z,8.31
2024-03-12T07:50:55.000Z,8.31
2024-03-12T07:51:53.000Z,8.31
2024-03-12T07:52:55.000Z,8.31
2024-03-12T07:53:54.000Z,8.31
2024-03-12T07:54:53.000Z,8.31
2024-03-12T07:55:56.000Z,8.38
2024-03-12T07:56:54.000Z,8.31
2024-03-12T07:57:55.000Z,8.31
2024-03-12T07:58:56.000Z,8.38
2024-03-12T07:59:53.000Z,8.31
2024-03-12T08:00:54.000Z,8.38
2024-03-12T08:01:54.000Z,8.38
2024-03-12T08:02:54.000Z,8.38
2024-03-12T08:03:55.000Z,8.38
2024-03-12T08:04:53.000Z,8.38
2024-03-12T08:05:53.000Z,8.31
2024-03-12T08:06:54.000Z,8.38
2024-03-12T08:07:54.000Z,8.38
2024-03-12T08:08:53.000Z,8.31
2024-03-12T08:09:53.000Z,8.31
2024-03-12T08:10:54.000Z,8.38
2024-03-12T08:11:53.000Z,8.31
2024-03-12T08:12:53.000Z,8.31
2024-03-12T08:13:54.000Z,8.31
2024-03-12T08:14:53.000Z,8.31
2024-03-12T08:15:53.000Z,8.31
2024-03-12T08:16:54.000Z,8.38
2024-03-12T08:17:54.000Z,8.38
2024-03-12T08:18:53.000Z,8.38
2024-03-12T08:19:53.000Z,8.38
2024-03-12T08:20:53.000Z,8.38
2024-03-12T08:21:53.000Z,8.38
2024-03-12T08:22:53.000Z,8.38
2024-03-12T08:23:56.000Z,8.31
2024-03-12T08:24:54.000Z,8.38
2024-03-12T08:25:53.000Z,8.38
2024-03-12T08:26:54.000Z,8.38
2024-03-12T08:27:53.000Z,8.38
2024-03-12T08:28:54.000Z,8.38
2024-03-12T08:29:56.000Z,8.31
2024-03-12T08:30:53.000Z,8.38
2024-03-12T08:31:53.000Z,8.38
2024-03-12T08:32:55.000Z,8.38
2024-03-12T08:33:53.000Z,8.38
2024-03-12T08:34:53.000Z,8.38
2024-03-12T08:35:53.000Z,8.38
2024-03-12T08:36:55.000Z,8.38
2024-03-12T08:37:53.000Z,8.38
2024-03-12T08:38:54.000Z,8.38
2024-03-12T08:39:54.000Z,8.38
2024-03-12T08:40:55.000Z,8.44
2024-03-12T08:41:54.000Z,8.38
2024-03-12T08:42:54.000Z,8.44
2024-03-12T08:43:53.000Z,8.44
2024-03-12T08:44:54.000Z,8.44
2024-03-12T08:45:53.000Z,8.44
2024-03-12T08:46:53.000Z,8.44
2024-03-12T08:47:53.000Z,8.44
2024-03-12T08:48:53.000Z,8.44
2024-03-12T08:49:53.000Z,8.44
2024-03-12T08:50:54.000Z,8.44
2024-03-12T08:51:54.000Z,8.50
2024-03-12T08:52:53.000Z,8.50
2024-03-12T08:53:55.000Z,8.50
2024-03-12T08:54:54.000Z,8.56
2024-03-12T08:55:53.000Z,8.56
2024-03-12T08:56:53.000Z,8.50
2024-03-12T08:57:53.000Z,8.56
2024-03-12T08:58:53.000Z,8.62
2024-03-12T08:59:54.000Z,8.56
2024-03-12T09:00:55.000Z,8.62
2024-03-12T09:01:59.000Z,8.62
2024-03-12T09:02:55.000Z,8.62
2024-03-12T09:03:53.000Z,8.69
2024-03-12T09:04:53.000Z,8.69
2024-03-12T09:05:53.000Z,8.69
2024-03-12T09:06:53.000Z,8.75
2024-03-12T09:07:53.000Z,8.75
2024-03-12T09:08:54.000Z,8.81
2024-03-12T09:09:54.000Z,8.81
2024-03-12T09:10:53.000Z,8.81
2024-03-12T09:11:58.000Z,8.81
2024-03-12T09:12:53.000Z,8.88
2024-03-12T09:13:54.000Z,8.88
2024-03-12T09:14:54.000Z,8.88
2024-03-12T09:15:55.000Z,8.94
2024-03-12T09:16:54.000Z,8.94
2024-03-12T09:17:54.000Z,8.94
2024-03-12T09:18:53.000Z,8.94
2024-03-12T09:19:53.000Z,8.88
2024-03-12T09:20:55.000Z,8.94
2024-03-12T09:21:54.000Z,8.94
2024-03-12T09:22:55.000Z,8.94
2024-03-12T09:23:55.000Z,8.88
2024-03-12T09:24:53.000Z,8.88
2024-03-12T09:25:54.000Z,8.88
2024-03-12T09:26:54.000Z,8.88
2024-03-12T09:27:54.000Z,8.88
2024-03-12T09:28:53.000Z,8.94
2024-03-12T09:29:56.000Z,8.88
2024-03-12T09:30:54.000Z,8.88
2024-03-12T09:31:54.000Z,8.88
2024-03-12T09:32:53.000Z,8.88
2024-03-12T09:33:55.000Z,8.88
2024-03-12T09:34:54.000Z,8.88
2024-03-12T09:35:54.000Z,8.94
2024-03-12T09:36:54.000Z,8.94
2024-03-12T09:37:53.000Z,8.88
2024-03-12T09:38:54.000Z,8.94
2024-03-12T09:39:54.000Z,8.94
2024-03-12T09:40:55.000Z,8.94
2024-03-12T09:41:54.000Z,8.94
2024-03-12T09:42:59.000Z,8.94
2024-03-12T09:43:54.000Z,8.94
2024-03-12T09:44:54.000Z,8.94
2024-03-12T09:45:55.000Z,8.94
2024-03-12T09:46:54.000Z,8.88
2024-03-12T09:47:54.000Z,8.94
2024-03-12T09:48:54.000Z,8.94
2024-03-12T09:49:55.000Z,8.88
2024-03-12T09:50:56.000Z,8.94
2024-03-12T09:51:53.000Z,9.00
2024-03-12T09:52:54.000Z,8.94
2024-03-12T09:53:53.000Z,9.00
2024-03-12T09:54:53.000Z,9.00
2024-03-12T09:55:53.000Z,9.00
2024-03-12T09:56:54.000Z,9.06
2024-03-12T09:57:54.000Z,9.06
2024-03-12T09:58:53.000Z,9.06
2024-03-12T09:59:53.000Z,9.12
2024-03-12T10:00:53.000Z,9.12
2024-03-12T10:01:53.000Z,9.12
2024-03-12T10:02:54.000Z,9.19
2024-03-12T10:03:53.000Z,9.12
2024-03-12T10:04:53.000Z,9.12
2024-03-12T10:05:53.000Z,9.25
2024-03-12T10:06:54.000Z,9.25
2024-03-12T10:08:03.000Z,9.19
2024-03-12T10:08:55.000Z,9.31
2024-03-12T10:09:53.000Z,9.25
2024-03-12T10:10:53.000Z,9.31
2024-03-12T10:11:54.000Z,9.38
2024-03-12T10:12:53.000Z,9.31
2024-03-12T10:13:56.000Z,9.38
2024-03-12T10:14:53.000Z,9.38
2024-03-12T10:15:57.000Z,9.44
2024-03-12T10:17:08.000Z,9.44
2024-03-12T10:17:57.000Z,9.44
2024-03-12T10:19:03.000Z,9.44
2024-03-12T10:20:02.000Z,9.50
2024-03-12T10:21:00.000Z,9.50
2024-03-12T10:22:06.000Z,9.44
2024-03-12T10:23:03.000Z,9.50
2024-03-12T10:24:10.000Z,9.56
2024-03-12T10:25:05.000Z,9.50
2024-03-12T10:26:07.000Z,9.56
2024-03-12T10:27:00.000Z,9.56
2024-03-12T10:27:53.000Z,9.56
2024-03-12T10:28:54.000Z,9.56
2024-03-12T10:29:53.000Z,9.62
2024-03-12T10:31:03.000Z,9.62
2024-03-12T10:31:53.000Z,9.69
2024-03-12T10:32:54.000Z,9.75
2024-03-12T10:34:05.000Z,9.75
2024-03-12T10:34:53.000Z,9.81
2024-03-12T10:35:53.000Z,9.81
2024-03-12T10:36:53.000Z,9.81
2024-03-12T10:37:53.000Z,9.88
2024-03-12T10:38:53.000Z,9.88
2024-03-12T10:39:53.000Z,9.88
2024-03-12T10:40:55.000Z,9.94
2024-03-12T10:41:55.000Z,9.88
2024-03-12T10:42:55.000Z,9.88
2024-03-12T10:44:02.000Z,9.94
2024-03-12T10:44:56.000Z,9.94
2024-03-12T10:45:56.000Z,9.94
2024-03-12T10:46:54.000Z,9.94
2024-03-12T10:47:55.000Z,9.94
2024-03-12T10:48:53.000Z,9.94
2024-03-12T10:49:54.000Z,10.00
2024-03-12T10:50:55.000Z,10.00
2024-03-12T10:51:55.000Z,10.00
2024-03-12T10:52:56.000Z,10.00
2024-03-12T10:53:53.000Z,10.00
2024-03-12T10:54:53.000Z,10.06
2024-03-12T10:55:53.000Z,10.06
2024-03-12T10:56:53.000Z,10.06
2024-03-12T10:57:53.000Z,10.12
2024-03-12T10:58:53.000Z,10.12
2024-03-12T10:59:53.000Z,10.12
2024-03-12T11:00:53.000Z,10.12
2024-03-12T11:01:54.000Z,10.19
2024-03-12T11:02:53.000Z,10.12
2024-03-12T11:03:58.000Z,10.19
2024-03-12T11:04:54.000Z,10.19
2024-03-12T11:05:56.000Z,10.19
2024-03-12T11:06:53.000Z,10.19
2024-03-12T11:07:55.000Z,10.19
2024-03-12T11:08:55.000Z,10.19
2024-03-12T11:09:53.000Z,10.19
2024-03-12T11:10:54.000Z,10.19
2024-03-12T11:11:53.000Z,10.25
2024-03-12T11:12:54.000Z,10.25
2024-03-12T11:13:53.000Z,10.25
2024-03-12T11:14:54.000Z,10.31
2024-03-12T11:15:56.000Z,10.31
2024-03-12T11:16:54.000Z,10.31
2024-03-12T11:17:53.000Z,10.31
2024-03-12T11:18:53.000Z,10.31
2024-03-12T11:19:56.000Z,10.31
2024-03-12T11:20:53.000Z,10.31
2024-03-12T11:21:58.000Z,10.31
2024-03-12T11:22:57.000Z,10.31
2024-03-12T11:23:53.000Z,10.31
2024-03-12T11:24:53.000Z,10.31
2024-03-12T11:25:55.000Z,10.25
2024-03-12T11:26:57.000Z,10.31
2024-03-12T11:28:07.000Z,10.31
2024-03-12T11:28:54.000Z,10.31
2024-03-12T11:30:04.000Z,10.31
2024-03-12T11:31:01.000Z,10.31
2024-03-12T11:31:54.000Z,10.25
2024-03-12T11:32:56.000Z,10.25
2024-03-12T11:33:53.000Z,10.25
2024-03-12T11:34:53.000Z,10.25
2024-03-12T11:35:53.000Z,10.25
2024-03-12T11:37:11.000Z,10.25
2024-03-12T11:38:01.000Z,10.25
2024-03-12T11:38:57.000Z,10.31
2024-03-12T11:40:03.000Z,10.25
2024-03-12T11:40:53.000Z,10.25
2024-03-12T11:42:13.000Z,10.25
2024-03-12T11:42:56.000Z,10.25
2024-03-12T11:43:53.000Z,10.25
2024-03-12T11:44:54.000Z,10.12
2024-03-12T11:45:53.000Z,10.12
2024-03-12T11:46:53.000Z,10.12
2024-03-12T11:47:54.000Z,10.12
2024-03-12T11:48:53.000Z,10.06
2024-03-12T11:49:54.000Z,10.12
2024-03-12T11:50:59.000Z,10.06
2024-03-12T11:51:53.000Z,10.06
2024-03-12T11:53:09.000Z,10.06
2024-03-12T11:53:53.000Z,10.00
2024-03-12T11:54:53.000Z,10.00
2024-03-12T11:56:06.000Z,10.06
2024-03-12T11:56:53.000Z,10.06
2024-03-12T11:57:54.000Z,10.00
2024-03-12T11:58:54.000Z,10.00
2024-03-12T11:59:57.000Z,9.94
2024-03-12T12:00:53.000Z,10.00
2024-03-12T12:01:54.000Z,10.00
2024-03-12T12:02:54.000Z,10.00
2024-03-12T12:03:58.000Z,10.00
2024-03-12T12:04:55.000Z,9.94
2024-03-12T12:05:53.000Z,9.94
2024-03-12T12:06:56.000Z,9.94
2024-03-12T12:07:53.000Z,9.94
2024-03-12T12:08:53.000Z,9.94
2024-03-12T12:09:53.000Z,9.94
2024-03-12T12:11:04.000Z,10.00
2024-03-12T12:11:53.000Z,9.94
2024-03-12T12:12:53.000Z,9.94
2024-03-12T12:13:55.000Z,9.94
2024-03-12T12:14:53.000Z,9.94
2024-03-12T12:15:54.000Z,9.94
2024-03-12T12:16:56.000Z,9.94
2024-03-12T12:18:06.000Z,9.88
2024-03-12T12:19:01.000Z,9.94
2024-03-12T12:20:10.000Z,9.88
2024-03-12T12:20:55.000Z,9.94
2024-03-12T12:21:54.000Z,9.94
2024-03-12T12:22:53.000Z,9.94
2024-03-12T12:23:54.000Z,9.94
2024-03-12T12:24:53.000Z,9.94
2024-03-12T12:25:54.000Z,9.94
2024-03-12T12:26:55.000Z,9.94
2024-03-12T12:27:54.000Z,9.94
2024-03-12T12:28:54.000Z,9.94
2024-03-12T12:29:54.000Z,9.94
2024-03-12T12:30:56.000Z,9.94
2024-03-12T12:31:54.000Z,9.94
2024-03-12T12:32:54.000Z,9.94
2024-03-12T12:33:59.000Z,9.94
2024-03-12T12:34:53.000Z,9.94
2024-03-12T12:35:56.000Z,9.94
2024-03-12T12:36:54.000Z,9.94
2024-03-12T12:37:54.000Z,9.94
2024-03-12T12:38:55.000Z,9.94
2024-03-12T12:39:54.000Z,9.94
2024-03-12T12:40:53.000Z,9.88
2024-03-12T12:41:56.000Z,9.88
2024-03-12T12:42:53.000Z,9.88
2024-03-12T12:43:53.000Z,9.81
2024-03-12T12:44:53.000Z,9.81
2024-03-12T12:45:54.000Z,9.81
2024-03-12T12:46:54.000Z,9.75
2024-03-12T12:47:53.000Z,9.75
2024-03-12T12:48:58.000Z,9.75
2024-03-12T12:49:54.000Z,9.62
2024-03-12T12:50:55.000Z,9.69
2024-03-12T12:51:54.000Z,9.56
2024-03-12T12:52:57.000Z,9.56
2024-03-12T12:54:01.000Z,9.56
2024-03-12T12:54:57.000Z,9.56
2024-03-12T12:56:00.000Z,9.56
2024-03-12T12:56:59.000Z,9.62
2024-03-12T12:58:01.000Z,9.62
2024-03-12T12:58:53.000Z,9.62
2024-03-12T12:59:56.000Z,9.62
2024-03-12T13:00:59.000Z,9.62
2024-03-12T13:01:55.000Z,9.62
2024-03-12T13:03:13.000Z,9.56
2024-03-12T13:03:54.000Z,9.56
2024-03-12T13:04:55.000Z,9.56
2024-03-12T13:06:13.000Z,9.56
2024-03-12T13:06:55.000Z,9.56
2024-03-12T13:07:53.000Z,9.62
2024-03-12T13:08:54.000Z,9.62
2024-03-12T13:09:54.000Z,9.56
2024-03-12T13:11:03.000Z,9.62
2024-03-12T13:11:53.000Z,9.62
2024-03-12T13:12:54.000Z,9.56
2024-03-12T13:13:53.000Z,9.62
2024-03-12T13:14:53.000Z,9.62
2024-03-12T13:15:54.000Z,9.62